sensor_id;sensor_type;location;lat;lon;timestamp;pressure;altitude;pressure_sealevel;temperature;humidity
38630;BME280;24384;51.988;4.644;2023-02-23T00:00:52;101419.22;;;7.87;92.17
38630;BME280;24384;51.988;4.644;2023-02-23T00:03:17;101422.72;;;7.84;92.80
38630;BME280;24384;51.988;4.644;2023-02-23T00:05:42;101429.75;;;7.84;92.78
38630;BME280;24384;51.988;4.644;2023-02-23T00:08:07;101434.19;;;7.80;93.21
38630;BME280;24384;51.988;4.644;2023-02-23T00:10:33;101424.47;;;7.87;92.28
38630;BME280;24384;51.988;4.644;2023-02-23T00:12:59;101424.38;;;7.93;92.11
38630;BME280;24384;51.988;4.644;2023-02-23T00:15:25;101419.13;;;7.93;91.93
38630;BME280;24384;51.988;4.644;2023-02-23T00:17:56;101419.16;;;7.90;92.17
38630;BME280;24384;51.988;4.644;2023-02-23T00:20:23;101419.19;;;7.88;92.55
38630;BME280;24384;51.988;4.644;2023-02-23T00:22:53;101413.94;;;7.88;92.72
38630;BME280;24384;51.988;4.644;2023-02-23T00:25:19;101423.59;;;7.88;92.65
38630;BME280;24384;51.988;4.644;2023-02-23T00:27:44;101419.16;;;7.92;92.66
38630;BME280;24384;51.988;4.644;2023-02-23T00:30:14;101426.06;;;7.99;92.36
38630;BME280;24384;51.988;4.644;2023-02-23T00:32:40;101424.38;;;7.93;91.96
38630;BME280;24384;51.988;4.644;2023-02-23T00:35:06;101423.59;;;7.88;92.05
38630;BME280;24384;51.988;4.644;2023-02-23T00:37:50;101424.53;;;7.81;92.58
38630;BME280;24384;51.988;4.644;2023-02-23T00:40:16;101408.75;;;7.82;92.54
38630;BME280;24384;51.988;4.644;2023-02-23T00:42:46;101419.19;;;7.88;92.33
38630;BME280;24384;51.988;4.644;2023-02-23T00:45:13;101410.47;;;7.86;92.55
38630;BME280;24384;51.988;4.644;2023-02-23T00:47:43;101412.13;;;7.92;92.19
38630;BME280;24384;51.988;4.644;2023-02-23T00:50:10;101414.72;;;7.94;92.12
38630;BME280;24384;51.988;4.644;2023-02-23T00:52:40;101418.31;;;7.89;92.58
38630;BME280;24384;51.988;4.644;2023-02-23T00:55:10;101416.50;;;7.93;92.37
38630;BME280;24384;51.988;4.644;2023-02-23T00:57:35;101413.03;;;7.93;92.28
38630;BME280;24384;51.988;4.644;2023-02-23T01:00:02;101417.34;;;7.94;91.98
38630;BME280;24384;51.988;4.644;2023-02-23T01:02:37;101413.94;;;7.88;92.13
38630;BME280;24384;51.988;4.644;2023-02-23T01:05:02;101422.81;;;7.77;92.04
38630;BME280;24384;51.988;4.644;2023-02-23T01:07:28;101419.38;;;7.71;92.24
38630;BME280;24384;51.988;4.644;2023-02-23T01:09:53;101426.41;;;7.71;92.46
38630;BME280;24384;51.988;4.644;2023-02-23T01:12:18;101423.69;;;7.80;91.93
38630;BME280;24384;51.988;4.644;2023-02-23T01:14:43;101423.69;;;7.80;92.06
38630;BME280;24384;51.988;4.644;2023-02-23T01:17:10;101434.19;;;7.80;92.06
38630;BME280;24384;51.988;4.644;2023-02-23T01:19:35;101429.78;;;7.81;92.34
38630;BME280;24384;51.988;4.644;2023-02-23T01:22:00;101425.38;;;7.81;92.24
38630;BME280;24384;51.988;4.644;2023-02-23T01:24:27;101428.03;;;7.80;92.62
38630;BME280;24384;51.988;4.644;2023-02-23T01:26:53;101420.09;;;7.86;92.56
38630;BME280;24384;51.988;4.644;2023-02-23T01:29:18;101428.84;;;7.88;92.42
38630;BME280;24384;51.988;4.644;2023-02-23T01:31:46;101424.38;;;7.95;92.43
38630;BME280;24384;51.988;4.644;2023-02-23T01:34:13;101436.56;;;7.99;92.31
38630;BME280;24384;51.988;4.644;2023-02-23T01:36:41;101433.97;;;7.97;92.13
38630;BME280;24384;51.988;4.644;2023-02-23T01:39:10;101433.94;;;8.00;91.80
38630;BME280;24384;51.988;4.644;2023-02-23T01:41:36;101427.88;;;7.94;92.32
38630;BME280;24384;51.988;4.644;2023-02-23T01:44:57;101429.63;;;7.95;92.26
38630;BME280;24384;51.988;4.644;2023-02-23T01:46:52;101431.47;;;7.88;92.55
38630;BME280;24384;51.988;4.644;2023-02-23T01:49:22;101428.75;;;7.96;92.75
38630;BME280;24384;51.988;4.644;2023-02-23T01:52:00;101428.75;;;7.96;92.10
38630;BME280;24384;51.988;4.644;2023-02-23T01:54:32;101420.03;;;7.89;92.11
38630;BME280;24384;51.988;4.644;2023-02-23T01:57:01;101432.44;;;7.79;92.75
38630;BME280;24384;51.988;4.644;2023-02-23T01:59:32;101435.16;;;7.70;92.63
38630;BME280;24384;51.988;4.644;2023-02-23T02:01:59;101437.84;;;7.64;93.25
38630;BME280;24384;51.988;4.644;2023-02-23T02:04:25;101438.72;;;7.64;93.21
38630;BME280;24384;51.988;4.644;2023-02-23T02:06:53;101432.50;;;7.73;92.55
38630;BME280;24384;51.988;4.644;2023-02-23T02:09:21;101443.00;;;7.73;92.53
38630;BME280;24384;51.988;4.644;2023-02-23T02:11:50;101444.69;;;7.80;92.42
38630;BME280;24384;51.988;4.644;2023-02-23T02:14:23;101449.00;;;7.83;91.53
38630;BME280;24384;51.988;4.644;2023-02-23T02:17:08;101450.00;;;7.74;92.02
38630;BME280;24384;51.988;4.644;2023-02-23T02:23:08;101443.00;;;7.75;92.48
38630;BME280;24384;51.988;4.644;2023-02-23T02:26:03;101448.25;;;7.73;92.45
38630;BME280;24384;51.988;4.644;2023-02-23T02:28:43;101450.78;;;7.81;92.55
38630;BME280;24384;51.988;4.644;2023-02-23T02:31:29;101443.84;;;7.75;93.02
38630;BME280;24384;51.988;4.644;2023-02-23T02:47:50;101441.19;;;7.78;92.69
38630;BME280;24384;51.988;4.644;2023-02-23T02:50:34;101434.03;;;7.93;91.94
38630;BME280;24384;51.988;4.644;2023-02-23T02:53:06;101426.22;;;7.86;92.31
38630;BME280;24384;51.988;4.644;2023-02-23T02:55:33;101420.09;;;7.86;92.01
38630;BME280;24384;51.988;4.644;2023-02-23T02:58:04;101427.19;;;7.78;91.97
38630;BME280;24384;51.988;4.644;2023-02-23T03:00:40;101429.00;;;7.74;92.43
38630;BME280;24384;51.988;4.644;2023-02-23T03:03:58;101427.22;;;7.76;92.53
38630;BME280;24384;51.988;4.644;2023-02-23T03:06:51;101432.50;;;7.73;92.94
38630;BME280;24384;51.988;4.644;2023-02-23T03:21:35;101425.53;;;7.69;92.19
38630;BME280;24384;51.988;4.644;2023-02-23T03:24:35;101430.94;;;7.57;92.19
38630;BME280;24384;51.988;4.644;2023-02-23T03:30:22;101442.22;;;7.65;92.15
38630;BME280;24384;51.988;4.644;2023-02-23T03:33:15;101438.69;;;7.67;92.31
38630;BME280;24384;51.988;4.644;2023-02-23T03:36:22;101441.50;;;7.50;92.85
38630;BME280;24384;51.988;4.644;2023-02-23T03:42:09;101449.38;;;7.49;92.89
38630;BME280;24384;51.988;4.644;2023-02-23T03:44:54;101458.06;;;7.57;92.77
38630;BME280;24384;51.988;4.644;2023-02-23T03:47:41;101447.53;;;7.62;92.88
38630;BME280;24384;51.988;4.644;2023-02-23T03:50:46;101453.56;;;7.68;93.02
38630;BME280;24384;51.988;4.644;2023-02-23T03:53:43;101455.38;;;7.63;93.32
38630;BME280;24384;51.988;4.644;2023-02-23T03:56:32;101464.19;;;7.56;93.32
38630;BME280;24384;51.988;4.644;2023-02-23T03:59:21;101460.66;;;7.60;93.12
38630;BME280;24384;51.988;4.644;2023-02-23T04:02:09;101466.81;;;7.58;93.29
38630;BME280;24384;51.988;4.644;2023-02-23T04:04:56;101475.69;;;7.43;93.97
38630;BME280;24384;51.988;4.644;2023-02-23T04:07:44;101469.56;;;7.45;93.62
38630;BME280;24384;51.988;4.644;2023-02-23T04:10:33;101470.34;;;7.52;93.51
38630;BME280;24384;51.988;4.644;2023-02-23T04:13:23;101466.78;;;7.59;93.18
38630;BME280;24384;51.988;4.644;2023-02-23T04:15:54;101468.50;;;7.63;93.42
38630;BME280;24384;51.988;4.644;2023-02-23T04:18:24;101463.19;;;7.68;93.25
38630;BME280;24384;51.988;4.644;2023-02-23T04:20:50;101471.09;;;7.68;93.30
38630;BME280;24384;51.988;4.644;2023-02-23T04:23:16;101467.53;;;7.69;92.88
38630;BME280;24384;51.988;4.644;2023-02-23T04:25:41;101471.91;;;7.71;93.06
38630;BME280;24384;51.988;4.644;2023-02-23T04:28:07;101470.16;;;7.70;93.10
38630;BME280;24384;51.988;4.644;2023-02-23T04:30:32;101470.16;;;7.70;92.95
38630;BME280;24384;51.988;4.644;2023-02-23T04:32:57;101472.75;;;7.74;92.50
38630;BME280;24384;51.988;4.644;2023-02-23T04:35:23;101471.88;;;7.73;93.48
38630;BME280;24384;51.988;4.644;2023-02-23T04:37:49;101466.59;;;7.76;92.76
38630;BME280;24384;51.988;4.644;2023-02-23T04:40:14;101460.47;;;7.79;92.79
38630;BME280;24384;51.988;4.644;2023-02-23T04:42:40;101457.81;;;7.80;92.96
38630;BME280;24384;51.988;4.644;2023-02-23T04:45:06;101465.69;;;7.80;92.65
38630;BME280;24384;51.988;4.644;2023-02-23T04:47:32;101472.66;;;7.81;93.12
38630;BME280;24384;51.988;4.644;2023-02-23T04:49:57;101469.13;;;7.84;92.54
38630;BME280;24384;51.988;4.644;2023-02-23T04:52:23;101470.09;;;7.77;92.72
38630;BME280;24384;51.988;4.644;2023-02-23T04:54:48;101473.56;;;7.82;92.41
38630;BME280;24384;51.988;4.644;2023-02-23T04:57:13;101477.94;;;7.78;92.71
38630;BME280;24384;51.988;4.644;2023-02-23T04:59:39;101477.13;;;7.75;92.74
38630;BME280;24384;51.988;4.644;2023-02-23T05:02:04;101478.91;;;7.73;92.72
38630;BME280;24384;51.988;4.644;2023-02-23T05:04:30;101487.69;;;7.68;92.69
38630;BME280;24384;51.988;4.644;2023-02-23T05:06:56;101472.75;;;7.74;92.22
38630;BME280;24384;51.988;4.644;2023-02-23T05:09:21;101484.19;;;7.71;92.19
38630;BME280;24384;51.988;4.644;2023-02-23T05:11:47;101490.31;;;7.70;92.17
38630;BME280;24384;51.988;4.644;2023-02-23T05:14:12;101497.38;;;7.65;91.98
38630;BME280;24384;51.988;4.644;2023-02-23T05:16:38;101505.22;;;7.68;91.96
38630;BME280;24384;51.988;4.644;2023-02-23T05:19:03;101506.16;;;7.61;91.79
38630;BME280;24384;51.988;4.644;2023-02-23T05:21:28;101508.81;;;7.56;92.13
38630;BME280;24384;51.988;4.644;2023-02-23T05:23:54;101511.50;;;7.51;92.23
38630;BME280;24384;51.988;4.644;2023-02-23T05:26:20;101512.31;;;7.55;92.09
38630;BME280;24384;51.988;4.644;2023-02-23T05:28:45;101512.34;;;7.52;92.16
38630;BME280;24384;51.988;4.644;2023-02-23T05:31:11;101515.00;;;7.50;92.28
38630;BME280;24384;51.988;4.644;2023-02-23T05:33:36;101513.31;;;7.46;92.21
38630;BME280;24384;51.988;4.644;2023-02-23T05:36:13;101519.38;;;7.50;92.42
38630;BME280;24384;51.988;4.644;2023-02-23T05:38:40;101519.38;;;7.51;92.42
38630;BME280;24384;51.988;4.644;2023-02-23T05:41:07;101527.22;;;7.55;92.01
38630;BME280;24384;51.988;4.644;2023-02-23T05:43:33;101516.75;;;7.51;92.16
38630;BME280;24384;51.988;4.644;2023-02-23T05:45:58;101520.19;;;7.55;92.23
38630;BME280;24384;51.988;4.644;2023-02-23T05:48:25;101529.84;;;7.53;92.19
38630;BME280;24384;51.988;4.644;2023-02-23T05:50:50;101520.19;;;7.57;92.04
38630;BME280;24384;51.988;4.644;2023-02-23T05:53:15;101531.56;;;7.57;92.23
38630;BME280;24384;51.988;4.644;2023-02-23T05:55:41;101524.56;;;7.56;92.42
38630;BME280;24384;51.988;4.644;2023-02-23T05:58:06;101521.97;;;7.55;92.20
38630;BME280;24384;51.988;4.644;2023-02-23T06:00:31;101514.13;;;7.51;92.37
38630;BME280;24384;51.988;4.644;2023-02-23T06:02:57;101518.50;;;7.52;92.26
38630;BME280;24384;51.988;4.644;2023-02-23T06:05:22;101522.00;;;7.51;92.23
38630;BME280;24384;51.988;4.644;2023-02-23T06:07:47;101518.50;;;7.52;92.20
38630;BME280;24384;51.988;4.644;2023-02-23T06:10:13;101520.25;;;7.50;91.79
38630;BME280;24384;51.988;4.644;2023-02-23T06:12:38;101525.50;;;7.50;91.98
38630;BME280;24384;51.988;4.644;2023-02-23T06:15:04;101529.88;;;7.50;92.67
38630;BME280;24384;51.988;4.644;2023-02-23T06:17:29;101531.66;;;7.49;92.43
38630;BME280;24384;51.988;4.644;2023-02-23T06:19:55;101533.38;;;7.50;91.94
38630;BME280;24384;51.988;4.644;2023-02-23T06:22:20;101540.44;;;7.44;91.99
38630;BME280;24384;51.988;4.644;2023-02-23T06:24:45;101537.81;;;7.42;92.20
38630;BME280;24384;51.988;4.644;2023-02-23T06:27:11;101554.50;;;7.33;92.19
38630;BME280;24384;51.988;4.644;2023-02-23T06:29:36;101551.00;;;7.34;91.80
38630;BME280;24384;51.988;4.644;2023-02-23T06:32:03;101551.88;;;7.35;92.28
38630;BME280;24384;51.988;4.644;2023-02-23T06:34:28;101551.88;;;7.35;92.05
38630;BME280;24384;51.988;4.644;2023-02-23T06:36:53;101551.94;;;7.26;92.22
38630;BME280;24384;51.988;4.644;2023-02-23T06:39:19;101546.66;;;7.32;92.10
38630;BME280;24384;51.988;4.644;2023-02-23T06:41:44;101552.72;;;7.39;92.07
38630;BME280;24384;51.988;4.644;2023-02-23T06:44:09;101551.84;;;7.38;92.12
38630;BME280;24384;51.988;4.644;2023-02-23T06:46:34;101550.13;;;7.37;92.22
38630;BME280;24384;51.988;4.644;2023-02-23T06:49:00;101555.38;;;7.37;92.50
38630;BME280;24384;51.988;4.644;2023-02-23T06:51:26;101554.47;;;7.40;92.34
38630;BME280;24384;51.988;4.644;2023-02-23T06:53:51;101561.50;;;7.34;92.45
38630;BME280;24384;51.988;4.644;2023-02-23T06:56:17;101561.44;;;7.42;92.37
38630;BME280;24384;51.988;4.644;2023-02-23T06:58:43;101566.69;;;7.44;91.92
38630;BME280;24384;51.988;4.644;2023-02-23T07:01:08;101575.38;;;7.47;92.00
38630;BME280;24384;51.988;4.644;2023-02-23T07:03:34;101579.81;;;7.44;92.09
38630;BME280;24384;51.988;4.644;2023-02-23T07:05:59;101572.78;;;7.44;91.97
38630;BME280;24384;51.988;4.644;2023-02-23T07:08:25;101582.34;;;7.53;91.78
38630;BME280;24384;51.988;4.644;2023-02-23T07:10:50;101585.00;;;7.50;91.93
38630;BME280;24384;51.988;4.644;2023-02-23T07:13:15;101600.69;;;7.56;91.82
38630;BME280;24384;51.988;4.644;2023-02-23T07:15:41;101598.94;;;7.57;91.77
38630;BME280;24384;51.988;4.644;2023-02-23T07:18:07;101604.16;;;7.58;91.67
38630;BME280;24384;51.988;4.644;2023-02-23T07:20:33;101615.56;;;7.57;91.71
38630;BME280;24384;51.988;4.644;2023-02-23T07:22:59;101629.53;;;7.61;92.09
38630;BME280;24384;51.988;4.644;2023-02-23T07:25:28;101625.19;;;7.57;91.85
38630;BME280;24384;51.988;4.644;2023-02-23T07:27:53;101627.84;;;7.52;92.30
38630;BME280;24384;51.988;4.644;2023-02-23T07:30:19;101636.72;;;7.40;92.37
38630;BME280;24384;51.988;4.644;2023-02-23T07:32:51;101635.75;;;7.47;92.02
38630;BME280;24384;51.988;4.644;2023-02-23T07:35:17;101642.69;;;7.59;91.67
38630;BME280;24384;51.988;4.644;2023-02-23T07:37:43;101642.63;;;7.64;92.04
38630;BME280;24384;51.988;4.644;2023-02-23T07:40:09;101641.75;;;7.68;92.01
38630;BME280;24384;51.988;4.644;2023-02-23T07:42:34;101639.06;;;7.76;92.01
38630;BME280;24384;51.988;4.644;2023-02-23T07:45:00;101642.53;;;7.76;91.92
38630;BME280;24384;51.988;4.644;2023-02-23T07:47:26;101651.25;;;7.80;92.07
38630;BME280;24384;51.988;4.644;2023-02-23T07:49:58;101645.91;;;7.91;91.84
38630;BME280;24384;51.988;4.644;2023-02-23T07:52:24;101648.50;;;7.92;91.96
38630;BME280;24384;51.988;4.644;2023-02-23T07:54:50;101650.28;;;7.93;91.62
38630;BME280;24384;51.988;4.644;2023-02-23T07:57:15;101652.84;;;7.98;91.67
38630;BME280;24384;51.988;4.644;2023-02-23T07:59:40;101649.34;;;8.00;91.38
38630;BME280;24384;51.988;4.644;2023-02-23T08:02:06;101654.63;;;7.96;91.22
38630;BME280;24384;51.988;4.644;2023-02-23T08:04:31;101664.13;;;8.09;90.76
38630;BME280;24384;51.988;4.644;2023-02-23T08:06:56;101661.53;;;8.06;90.85
38630;BME280;24384;51.988;4.644;2023-02-23T08:09:22;101673.59;;;8.25;90.16
38630;BME280;24384;51.988;4.644;2023-02-23T08:11:47;101673.63;;;8.22;90.32
38630;BME280;24384;51.988;4.644;2023-02-23T08:14:13;101678.91;;;8.21;89.52
38630;BME280;24384;51.988;4.644;2023-02-23T08:16:38;101678.88;;;8.25;89.36
38630;BME280;24384;51.988;4.644;2023-02-23T08:19:03;101676.06;;;8.44;89.48
38630;BME280;24384;51.988;4.644;2023-02-23T08:21:29;101677.66;;;8.60;88.92
38630;BME280;24384;51.988;4.644;2023-02-23T08:23:56;101683.75;;;8.64;88.18
38630;BME280;24384;51.988;4.644;2023-02-23T08:26:22;101680.22;;;8.67;87.56
38630;BME280;24384;51.988;4.644;2023-02-23T08:28:49;101688.16;;;8.62;87.08
38630;BME280;24384;51.988;4.644;2023-02-23T08:31:14;101684.44;;;8.78;87.15
38630;BME280;24384;51.988;4.644;2023-02-23T08:33:42;101688.97;;;8.67;86.06
38630;BME280;24384;51.988;4.644;2023-02-23T08:36:08;101693.31;;;8.70;86.36
38630;BME280;24384;51.988;4.644;2023-02-23T08:38:33;101685.16;;;8.93;87.19
38630;BME280;24384;51.988;4.644;2023-02-23T08:41:01;101683.94;;;9.17;86.00
38630;BME280;24384;51.988;4.644;2023-02-23T08:43:27;101685.09;;;8.98;85.04
38630;BME280;24384;51.988;4.644;2023-02-23T08:45:52;101692.78;;;9.13;84.97
38630;BME280;24384;51.988;4.644;2023-02-23T08:48:17;101690.97;;;9.17;84.77
38630;BME280;24384;51.988;4.644;2023-02-23T08:50:43;101696.09;;;9.27;84.12
38630;BME280;24384;51.988;4.644;2023-02-23T08:53:08;101706.03;;;9.07;84.18
38630;BME280;24384;51.988;4.644;2023-02-23T08:55:36;101711.19;;;9.16;84.21
38630;BME280;24384;51.988;4.644;2023-02-23T08:58:02;101709.41;;;9.17;84.74
38630;BME280;24384;51.988;4.644;2023-02-23T09:00:27;101713.75;;;9.21;84.47
38630;BME280;24384;51.988;4.644;2023-02-23T09:02:52;101714.03;;;8.99;84.34
38630;BME280;24384;51.988;4.644;2023-02-23T09:05:17;101709.63;;;9.00;84.65
38630;BME280;24384;51.988;4.644;2023-02-23T09:07:44;101712.81;;;9.23;83.11
38630;BME280;24384;51.988;4.644;2023-02-23T09:10:17;101711.22;;;9.11;82.17
38630;BME280;24384;51.988;4.644;2023-02-23T09:12:44;101719.13;;;9.11;83.56
38630;BME280;24384;51.988;4.644;2023-02-23T09:15:09;101719.81;;;9.26;83.46
38630;BME280;24384;51.988;4.644;2023-02-23T09:17:35;101719.53;;;9.46;82.77
38630;BME280;24384;51.988;4.644;2023-02-23T09:20:00;101724.63;;;9.57;81.85
38630;BME280;24384;51.988;4.644;2023-02-23T09:22:26;101730.06;;;9.46;81.99
38630;BME280;24384;51.988;4.644;2023-02-23T09:24:51;101734.13;;;9.68;82.30
38630;BME280;24384;51.988;4.644;2023-02-23T09:27:16;101736.69;;;9.75;81.19
38630;BME280;24384;51.988;4.644;2023-02-23T09:29:41;101745.31;;;9.83;81.11
38630;BME280;24384;51.988;4.644;2023-02-23T09:32:08;101746.03;;;9.93;80.72
38630;BME280;24384;51.988;4.644;2023-02-23T09:34:34;101738.25;;;9.85;82.23
38630;BME280;24384;51.988;4.644;2023-02-23T09:37:03;101740.69;;;9.97;80.27
38630;BME280;24384;51.988;4.644;2023-02-23T09:39:29;101740.00;;;9.86;80.40
38630;BME280;24384;51.988;4.644;2023-02-23T09:42:02;101736.47;;;9.87;79.79
38630;BME280;24384;51.988;4.644;2023-02-23T09:44:46;101732.38;;;9.67;81.05
38630;BME280;24384;51.988;4.644;2023-02-23T09:47:29;101734.97;;;9.71;80.97
38630;BME280;24384;51.988;4.644;2023-02-23T09:49:58;101734.09;;;9.72;80.46
38630;BME280;24384;51.988;4.644;2023-02-23T09:52:28;101729.03;;;9.58;80.88
38630;BME280;24384;51.988;4.644;2023-02-23T09:54:59;101726.41;;;9.56;81.39
38630;BME280;24384;51.988;4.644;2023-02-23T09:57:35;101728.03;;;9.65;81.45
38630;BME280;24384;51.988;4.644;2023-02-23T10:00:09;101737.00;;;9.53;81.73
38630;BME280;24384;51.988;4.644;2023-02-23T10:02:50;101734.91;;;9.74;81.64
38630;BME280;24384;51.988;4.644;2023-02-23T10:05:21;101734.69;;;9.89;81.29
38630;BME280;24384;51.988;4.644;2023-02-23T10:08:05;101743.88;;;10.19;79.89
38630;BME280;24384;51.988;4.644;2023-02-23T10:10:39;101744.31;;;9.92;80.36
38630;BME280;24384;51.988;4.644;2023-02-23T10:13:18;101737.25;;;9.94;79.80
38630;BME280;24384;51.988;4.644;2023-02-23T10:15:52;101746.94;;;9.92;78.78
38630;BME280;24384;51.988;4.644;2023-02-23T10:18:48;101742.53;;;9.92;79.81
38630;BME280;24384;51.988;4.644;2023-02-23T10:21:22;101739.25;;;9.78;79.96
38630;BME280;24384;51.988;4.644;2023-02-23T10:24:00;101748.13;;;9.71;80.58
38630;BME280;24384;51.988;4.644;2023-02-23T10:26:35;101745.44;;;9.75;80.21
38630;BME280;24384;51.988;4.644;2023-02-23T10:29:03;101748.22;;;9.66;80.23
38630;BME280;24384;51.988;4.644;2023-02-23T10:31:48;101758.28;;;9.36;81.43
38630;BME280;24384;51.988;4.644;2023-02-23T10:34:16;101757.41;;;9.36;81.31
38630;BME280;24384;51.988;4.644;2023-02-23T10:36:50;101758.44;;;9.24;81.96
38630;BME280;24384;51.988;4.644;2023-02-23T10:39:19;101760.13;;;9.28;81.66
38630;BME280;24384;51.988;4.644;2023-02-23T10:41:44;101762.84;;;9.20;82.02
38630;BME280;24384;51.988;4.644;2023-02-23T10:44:18;101767.25;;;9.21;82.69
38630;BME280;24384;51.988;4.644;2023-02-23T10:46:49;101767.06;;;9.35;82.03
38630;BME280;24384;51.988;4.644;2023-02-23T10:49:18;101769.63;;;9.40;82.42
38630;BME280;24384;51.988;4.644;2023-02-23T10:51:48;101766.03;;;9.48;81.50
38630;BME280;24384;51.988;4.644;2023-02-23T10:57:00;101762.72;;;9.31;81.96
38630;BME280;24384;51.988;4.644;2023-02-23T10:59:27;101765.56;;;9.14;82.35
38630;BME280;24384;51.988;4.644;2023-02-23T11:01:52;101777.06;;;9.08;82.99
38630;BME280;24384;51.988;4.644;2023-02-23T11:04:25;101770.22;;;8.92;82.79
38630;BME280;24384;51.988;4.644;2023-02-23T11:07:16;101776.25;;;9.02;83.08
38630;BME280;24384;51.988;4.644;2023-02-23T11:09:42;101770.25;;;8.89;83.81
38630;BME280;24384;51.988;4.644;2023-02-23T11:12:35;101774.78;;;8.77;84.78
38630;BME280;24384;51.988;4.644;2023-02-23T11:22:52;101788.94;;;8.63;86.61
38630;BME280;24384;51.988;4.644;2023-02-23T11:25:24;101797.63;;;8.71;86.04
38630;BME280;24384;51.988;4.644;2023-02-23T11:27:52;101803.88;;;8.60;86.10
38630;BME280;24384;51.988;4.644;2023-02-23T11:30:21;101789.88;;;8.57;87.13
38630;BME280;24384;51.988;4.644;2023-02-23T11:32:54;101796.88;;;8.59;86.87
38630;BME280;24384;51.988;4.644;2023-02-23T11:37:45;101775.34;;;9.04;85.82
38630;BME280;24384;51.988;4.644;2023-02-23T11:40:24;101776.09;;;9.14;85.42
38630;BME280;24384;51.988;4.644;2023-02-23T11:42:55;101767.06;;;9.37;85.31
38630;BME280;24384;51.988;4.644;2023-02-23T11:45:22;101762.50;;;9.48;84.05
38630;BME280;24384;51.988;4.644;2023-02-23T11:47:55;101759.59;;;9.66;82.86
38630;BME280;24384;51.988;4.644;2023-02-23T11:53:11;101747.84;;;9.89;80.47
38630;BME280;24384;51.988;4.644;2023-02-23T11:55:38;101762.97;;;9.78;81.01
38630;BME280;24384;51.988;4.644;2023-02-23T11:58:09;101766.16;;;9.98;79.48
38630;BME280;24384;51.988;4.644;2023-02-23T12:00:36;101774.22;;;9.88;80.81
38630;BME280;24384;51.988;4.644;2023-02-23T12:03:02;101774.63;;;9.61;80.17
38630;BME280;24384;51.988;4.644;2023-02-23T12:05:29;101774.66;;;9.58;80.77
38630;BME280;24384;51.988;4.644;2023-02-23T12:08:05;101772.09;;;9.52;81.92
38630;BME280;24384;51.988;4.644;2023-02-23T12:10:41;101764.44;;;9.35;81.83
38630;BME280;24384;51.988;4.644;2023-02-23T12:13:23;101767.94;;;9.34;81.83
38630;BME280;24384;51.988;4.644;2023-02-23T12:18:46;101778.66;;;9.19;83.17
38630;BME280;24384;51.988;4.644;2023-02-23T12:21:18;101773.34;;;9.23;82.53
38630;BME280;24384;51.988;4.644;2023-02-23T12:23:47;101771.44;;;9.38;82.58
38630;BME280;24384;51.988;4.644;2023-02-23T12:26:19;101776.53;;;9.50;82.20
38630;BME280;24384;51.988;4.644;2023-02-23T12:29:04;101770.34;;;9.51;82.45
38630;BME280;24384;51.988;4.644;2023-02-23T12:31:44;101775.19;;;9.82;82.21
38630;BME280;24384;51.988;4.644;2023-02-23T12:34:25;101756.63;;;9.90;81.84
38630;BME280;24384;51.988;4.644;2023-02-23T12:36:57;101761.63;;;10.07;80.33
38630;BME280;24384;51.988;4.644;2023-02-23T12:39:30;101751.78;;;10.18;77.82
38630;BME280;24384;51.988;4.644;2023-02-23T12:42:01;101755.31;;;10.17;77.93
38630;BME280;24384;51.988;4.644;2023-02-23T12:44:47;101759.22;;;10.47;76.68
38630;BME280;24384;51.988;4.644;2023-02-23T12:50:33;101766.44;;;10.84;74.22
38630;BME280;24384;51.988;4.644;2023-02-23T12:58:25;101764.94;;;11.16;73.13
38630;BME280;24384;51.988;4.644;2023-02-23T13:00:58;101763.94;;;11.22;73.72
38630;BME280;24384;51.988;4.644;2023-02-23T13:07:10;101765.63;;;10.81;74.59
38630;BME280;24384;51.988;4.644;2023-02-23T13:10:00;101763.00;;;10.81;74.85
38630;BME280;24384;51.988;4.644;2023-02-23T13:21:15;101760.09;;;10.48;75.65
38630;BME280;24384;51.988;4.644;2023-02-23T13:24:01;101757.03;;;10.19;76.52
38630;BME280;24384;51.988;4.644;2023-02-23T13:26:57;101757.94;;;10.18;77.50
38630;BME280;24384;51.988;4.644;2023-02-23T13:29:35;101764.00;;;10.22;76.69
38630;BME280;24384;51.988;4.644;2023-02-23T13:32:03;101763.38;;;10.08;77.33
38630;BME280;24384;51.988;4.644;2023-02-23T13:34:43;101764.31;;;10.03;76.75
38630;BME280;24384;51.988;4.644;2023-02-23T13:37:11;101759.94;;;10.04;77.29
38630;BME280;24384;51.988;4.644;2023-02-23T13:45:22;101755.41;;;10.11;78.56
38630;BME280;24384;51.988;4.644;2023-02-23T13:48:15;101752.16;;;9.95;78.80
38630;BME280;24384;51.988;4.644;2023-02-23T13:51:02;101753.78;;;10.03;79.21
38630;BME280;24384;51.988;4.644;2023-02-23T13:53:43;101761.81;;;9.94;79.67
38630;BME280;24384;51.988;4.644;2023-02-23T13:56:26;101766.09;;;10.03;79.11
38630;BME280;24384;51.988;4.644;2023-02-23T13:59:05;101766.22;;;9.95;78.78
38630;BME280;24384;51.988;4.644;2023-02-23T14:01:43;101763.59;;;9.94;79.01
38630;BME280;24384;51.988;4.644;2023-02-23T14:04:26;101757.47;;;9.93;79.60
38630;BME280;24384;51.988;4.644;2023-02-23T14:07:00;101760.97;;;9.92;79.29
38630;BME280;24384;51.988;4.644;2023-02-23T14:09:31;101760.88;;;9.98;79.46
38630;BME280;24384;51.988;4.644;2023-02-23T14:12:25;101758.31;;;9.95;79.44
38630;BME280;24384;51.988;4.644;2023-02-23T14:18:04;101756.28;;;10.11;79.60
38630;BME280;24384;51.988;4.644;2023-02-23T14:20:53;101754.50;;;10.13;79.24
38630;BME280;24384;51.988;4.644;2023-02-23T14:25:46;101756.03;;;10.27;77.96
38630;BME280;24384;51.988;4.644;2023-02-23T14:30:59;101747.41;;;10.17;77.87
38630;BME280;24384;51.988;4.644;2023-02-23T14:36:02;101749.16;;;10.18;77.66
38630;BME280;24384;51.988;4.644;2023-02-23T14:41:28;101760.69;;;10.11;77.35
38630;BME280;24384;51.988;4.644;2023-02-23T14:43:59;101759.03;;;10.03;77.87
38630;BME280;24384;51.988;4.644;2023-02-23T14:46:28;101748.59;;;9.97;78.27
38630;BME280;24384;51.988;4.644;2023-02-23T14:49:04;101746.16;;;9.85;78.09
38630;BME280;24384;51.988;4.644;2023-02-23T14:51:37;101757.59;;;9.85;78.16
38630;BME280;24384;51.988;4.644;2023-02-23T14:54:36;101757.59;;;9.84;78.93